Göttingen, Germany

03:29 CEST le 01 octobre 2016 (GMT +0200)
Himmelsruh | | Change Station

Alt. 675 ft 51.52 °N, 9.96 °E | Updated 3 minutes ago

Light Rain
Pluie fine
51.3 ° F
Paraît 51.3 ° F
N
0.0
Vent Variable Vent de Nord
Gusts 0.6 mph

Aujourd'hui
Haut(e) -- | Bas -- ° F
--% Risque de précip.
Hier
Haut(e) -- | Bas -- ° F
Precip. -- pouce
Pression 29.92 pouce
Visibilité 6.2 Miles terrestres
Nuages Peu 6000 ft
Couvert 8000 ft
Point de rosée 48 ° F
Humidité 88%
Précipitations 0.00 pouce
Profondeur de la couche neigeuse Non disponible.
7:21 AM 6:57 PM
Nouvelle lune, 0% visible
METAR ETHF 010120Z 00000KT 9999 -RA FEW060 OVC080 10/10 Q1013 BLU
Pression 29.92 pouce
Visibilité 6.2 Miles terrestres
Nuages Peu 6000 ft
Couvert 8000 ft
Point de rosée 48 ° F
Humidité 88%
Précipitations 0.00 pouce
Profondeur de la couche neigeuse Non disponible.
7:21 AM 6:57 PM
Nouvelle lune, 0% visible
METAR ETHF 010120Z 00000KT 9999 -RA FEW060 OVC080 10/10 Q1013 BLU

10-Day Weather Forecast

×

Almanac

Astronomie

Oct. 01, 2016 Lever Coucher
Temps réel
Crépuscule civil
Crépuscule nautique
Crépuscule astronomique
Lune
Durée de lumière visible
Longueur du jour
Tomorrow will be .
, % of the Moon is Illuminated

Extrêmes aujourd'hui

Country Highs Country Lows

Community

WunderPhotos

Upload Photos

1,942,829 Photos téléchargées !

WunderBlog® & News

Nearby

Qualité de l'air

  Qualité de l'air Indice de la qualité de l'air Polluant
Not available.

Épaisseur de neige

Station Depth Altitude

Activité sismique

Ville Distance Mag. Time & Date
Minimum magnitude displayed is 2.5.

Températures des eaux côtières

Lieu Température

Stations

Stations météo à proximité

Emplacement de la station Température Refroidissement éolien Point de rosée Humidité Vent Precip. Alt. Mise à jour Type